sensor_id;sensor_type;location;lat;lon;timestamp;pressure;altitude;pressure_sealevel;temperature;humidity
28181;BME280;15464;50.988;10.318;2022-09-01T00:01:50;99494.47;;;12.57;69.65
28181;BME280;15464;50.988;10.318;2022-09-01T00:04:22;99487.53;;;12.45;71.23
28181;BME280;15464;50.988;10.318;2022-09-01T00:06:53;99496.47;;;12.44;71.36
28181;BME280;15464;50.988;10.318;2022-09-01T00:09:21;99498.69;;;12.39;70.55
28181;BME280;15464;50.988;10.318;2022-09-01T00:11:51;99494.50;;;12.36;70.39
28181;BME280;15464;50.988;10.318;2022-09-01T00:14:21;99495.06;;;12.40;69.97
28181;BME280;15464;50.988;10.318;2022-09-01T00:16:57;99494.22;;;12.39;69.83
28181;BME280;15464;50.988;10.318;2022-09-01T00:19:24;99493.38;;;12.39;69.70
28181;BME280;15464;50.988;10.318;2022-09-01T00:21:50;99490.84;;;12.37;69.38
28181;BME280;15464;50.988;10.318;2022-09-01T00:24:18;99493.88;;;12.33;69.24
28181;BME280;15464;50.988;10.318;2022-09-01T00:26:45;99495.81;;;12.31;69.83
28181;BME280;15464;50.988;10.318;2022-09-01T00:29:12;99489.09;;;12.27;69.51
28181;BME280;15464;50.988;10.318;2022-09-01T00:31:39;99501.66;;;12.25;69.86
28181;BME280;15464;50.988;10.318;2022-09-01T00:34:07;99502.91;;;12.21;69.94
28181;BME280;15464;50.988;10.318;2022-09-01T00:36:33;99509.56;;;12.15;70.47
28181;BME280;15464;50.988;10.318;2022-09-01T00:39:00;99508.25;;;12.09;70.68
28181;BME280;15464;50.988;10.318;2022-09-01T00:41:29;99504.03;;;12.07;70.91
28181;BME280;15464;50.988;10.318;2022-09-01T00:43:58;99503.19;;;12.06;70.83
28181;BME280;15464;50.988;10.318;2022-09-01T00:46:29;99497.03;;;12.06;71.35
28181;BME280;15464;50.988;10.318;2022-09-01T00:49:00;99501.25;;;12.08;71.65
28181;BME280;15464;50.988;10.318;2022-09-01T00:51:30;99500.91;;;12.02;71.65
28181;BME280;15464;50.988;10.318;2022-09-01T00:53:59;99493.56;;;11.94;71.53
28181;BME280;15464;50.988;10.318;2022-09-01T00:56:27;99495.53;;;11.92;71.26
28181;BME280;15464;50.988;10.318;2022-09-01T00:58:55;99497.34;;;11.92;71.74
28181;BME280;15464;50.988;10.318;2022-09-01T01:01:22;99494.06;;;11.88;72.08
28181;BME280;15464;50.988;10.318;2022-09-01T01:03:49;99496.16;;;11.85;71.85
28181;BME280;15464;50.988;10.318;2022-09-01T01:06:16;99492.63;;;11.84;72.16
28181;BME280;15464;50.988;10.318;2022-09-01T01:08:46;99493.59;;;11.83;72.20
28181;BME280;15464;50.988;10.318;2022-09-01T01:11:26;99484.78;;;11.83;71.99
28181;BME280;15464;50.988;10.318;2022-09-01T01:14:00;99485.75;;;11.70;71.70
28181;BME280;15464;50.988;10.318;2022-09-01T01:16:35;99488.56;;;11.58;72.01
28181;BME280;15464;50.988;10.318;2022-09-01T01:19:03;99487.25;;;11.52;72.97
28181;BME280;15464;50.988;10.318;2022-09-01T01:21:38;99496.28;;;11.50;72.90
28181;BME280;15464;50.988;10.318;2022-09-01T01:24:28;99492.31;;;11.44;73.30
28181;BME280;15464;50.988;10.318;2022-09-01T01:26:57;99488.13;;;11.42;73.05
28181;BME280;15464;50.988;10.318;2022-09-01T01:29:31;99489.06;;;11.41;72.74
28181;BME280;15464;50.988;10.318;2022-09-01T01:31:59;99490.16;;;11.38;72.73
28181;BME280;15464;50.988;10.318;2022-09-01T01:34:27;99489.56;;;11.35;72.98
28181;BME280;15464;50.988;10.318;2022-09-01T01:36:54;99486.44;;;11.29;72.87
28181;BME280;15464;50.988;10.318;2022-09-01T01:39:25;99482.22;;;11.27;72.89
28181;BME280;15464;50.988;10.318;2022-09-01T01:41:53;99484.97;;;11.25;72.25
28181;BME280;15464;50.988;10.318;2022-09-01T01:44:23;99480.78;;;11.23;72.68
28181;BME280;15464;50.988;10.318;2022-09-01T01:46:54;99481.97;;;11.19;72.52
28181;BME280;15464;50.988;10.318;2022-09-01T01:49:24;99485.94;;;11.13;72.06
28181;BME280;15464;50.988;10.318;2022-09-01T01:51:53;99484.50;;;11.09;72.76
28181;BME280;15464;50.988;10.318;2022-09-01T01:54:23;99486.69;;;11.04;73.18
28181;BME280;15464;50.988;10.318;2022-09-01T01:56:51;99489.56;;;11.01;72.94
28181;BME280;15464;50.988;10.318;2022-09-01T01:59:17;99487.88;;;11.00;72.54
28181;BME280;15464;50.988;10.318;2022-09-01T02:01:45;99489.56;;;11.01;72.61
28181;BME280;15464;50.988;10.318;2022-09-01T02:04:18;99495.13;;;10.98;73.10
28181;BME280;15464;50.988;10.318;2022-09-01T02:06:46;99488.25;;;10.96;73.05
28181;BME280;15464;50.988;10.318;2022-09-01T02:09:16;99489.34;;;10.93;73.04
28181;BME280;15464;50.988;10.318;2022-09-01T02:11:43;99487.03;;;10.88;73.57
28181;BME280;15464;50.988;10.318;2022-09-01T02:14:11;99491.75;;;10.85;73.36
28181;BME280;15464;50.988;10.318;2022-09-01T02:16:39;99489.19;;;10.83;73.60
28181;BME280;15464;50.988;10.318;2022-09-01T02:19:07;99485.22;;;10.78;73.51
28181;BME280;15464;50.988;10.318;2022-09-01T02:21:35;99479.31;;;10.74;74.04
28181;BME280;15464;50.988;10.318;2022-09-01T02:26:37;99479.66;;;10.70;73.63
28181;BME280;15464;50.988;10.318;2022-09-01T02:29:10;99479.16;;;10.65;73.47
28181;BME280;15464;50.988;10.318;2022-09-01T02:31:45;99484.09;;;10.58;73.88
28181;BME280;15464;50.988;10.318;2022-09-01T02:34:12;99478.91;;;10.57;74.11
28181;BME280;15464;50.988;10.318;2022-09-01T02:36:47;99479.06;;;10.55;74.19
28181;BME280;15464;50.988;10.318;2022-09-01T02:39:17;99482.66;;;10.54;74.57
28181;BME280;15464;50.988;10.318;2022-09-01T02:41:44;99483.34;;;10.45;75.40
28181;BME280;15464;50.988;10.318;2022-09-01T02:44:10;99477.44;;;10.41;74.56
28181;BME280;15464;50.988;10.318;2022-09-01T02:46:40;99483.81;;;10.39;75.20
28181;BME280;15464;50.988;10.318;2022-09-01T02:49:11;99476.81;;;10.38;75.71
28181;BME280;15464;50.988;10.318;2022-09-01T02:51:45;99475.00;;;10.38;75.21
28181;BME280;15464;50.988;10.318;2022-09-01T02:54:15;99476.81;;;10.38;75.67
28181;BME280;15464;50.988;10.318;2022-09-01T02:56:45;99472.72;;;10.34;75.62
28181;BME280;15464;50.988;10.318;2022-09-01T02:59:16;99475.47;;;10.32;74.67
28181;BME280;15464;50.988;10.318;2022-09-01T03:01:42;99474.53;;;10.33;75.21
28181;BME280;15464;50.988;10.318;2022-09-01T03:04:13;99478.38;;;10.29;75.44
28181;BME280;15464;50.988;10.318;2022-09-01T03:06:40;99476.06;;;10.25;75.43
28181;BME280;15464;50.988;10.318;2022-09-01T03:09:10;99482.44;;;10.22;75.48
28181;BME280;15464;50.988;10.318;2022-09-01T03:11:43;99483.63;;;10.18;75.28
28181;BME280;15464;50.988;10.318;2022-09-01T03:14:09;99482.88;;;10.16;75.24
28181;BME280;15464;50.988;10.318;2022-09-01T03:16:38;99484.78;;;10.14;76.30
28181;BME280;15464;50.988;10.318;2022-09-01T03:19:06;99481.41;;;10.12;76.83
28181;BME280;15464;50.988;10.318;2022-09-01T03:21:35;99483.34;;;10.10;77.32
28181;BME280;15464;50.988;10.318;2022-09-01T03:24:03;99487.78;;;10.09;76.72
28181;BME280;15464;50.988;10.318;2022-09-01T03:26:30;99485.03;;;10.11;76.63
28181;BME280;15464;50.988;10.318;2022-09-01T03:28:57;99488.75;;;10.08;76.89
28181;BME280;15464;50.988;10.318;2022-09-01T03:31:24;99483.56;;;10.07;76.40
28181;BME280;15464;50.988;10.318;2022-09-01T03:33:56;99480.41;;;10.02;76.61
28181;BME280;15464;50.988;10.318;2022-09-01T03:36:24;99484.25;;;9.98;76.02
28181;BME280;15464;50.988;10.318;2022-09-01T03:38:51;99487.22;;;9.93;76.03
28181;BME280;15464;50.988;10.318;2022-09-01T03:41:21;99491.91;;;9.90;76.68
28181;BME280;15464;50.988;10.318;2022-09-01T03:43:50;99487.56;;;9.89;77.26
28181;BME280;15464;50.988;10.318;2022-09-01T03:46:21;99492.25;;;9.85;76.98
28181;BME280;15464;50.988;10.318;2022-09-01T03:48:50;99487.06;;;9.84;77.16
28181;BME280;15464;50.988;10.318;2022-09-01T03:51:19;99487.16;;;9.82;77.04
28181;BME280;15464;50.988;10.318;2022-09-01T03:53:50;99488.13;;;9.81;77.47
28181;BME280;15464;50.988;10.318;2022-09-01T03:56:21;99486.56;;;9.79;77.38
28181;BME280;15464;50.988;10.318;2022-09-01T03:58:49;99483.16;;;9.77;76.42
28181;BME280;15464;50.988;10.318;2022-09-01T04:01:18;99476.31;;;9.74;77.26
28181;BME280;15464;50.988;10.318;2022-09-01T04:03:45;99483.53;;;9.72;77.92
28181;BME280;15464;50.988;10.318;2022-09-01T04:06:16;99479.91;;;9.73;77.59
28181;BME280;15464;50.988;10.318;2022-09-01T04:08:49;99477.72;;;9.67;78.02
28181;BME280;15464;50.988;10.318;2022-09-01T04:11:19;99480.47;;;9.65;78.25
28181;BME280;15464;50.988;10.318;2022-09-01T04:13:50;99473.38;;;9.66;77.93
28181;BME280;15464;50.988;10.318;2022-09-01T04:16:25;99478.88;;;9.63;77.55
28181;BME280;15464;50.988;10.318;2022-09-01T04:19:15;99483.66;;;9.58;78.01
28181;BME280;15464;50.988;10.318;2022-09-01T04:21:48;99488.03;;;9.59;78.00
28181;BME280;15464;50.988;10.318;2022-09-01T04:24:19;99482.81;;;9.57;77.67
28181;BME280;15464;50.988;10.318;2022-09-01T04:26:51;99482.94;;;9.56;77.36
28181;BME280;15464;50.988;10.318;2022-09-01T04:29:19;99485.72;;;9.54;77.57
28181;BME280;15464;50.988;10.318;2022-09-01T04:31:53;99478.72;;;9.53;77.44
28181;BME280;15464;50.988;10.318;2022-09-01T04:34:21;99484.00;;;9.53;77.43
28181;BME280;15464;50.988;10.318;2022-09-01T04:36:49;99481.72;;;9.49;77.76
28181;BME280;15464;50.988;10.318;2022-09-01T04:39:21;99488.06;;;9.46;78.13
28181;BME280;15464;50.988;10.318;2022-09-01T04:41:47;99483.72;;;9.45;78.18
28181;BME280;15464;50.988;10.318;2022-09-01T04:44:17;99489.97;;;9.44;78.64
28181;BME280;15464;50.988;10.318;2022-09-01T04:46:45;99488.25;;;9.43;78.48
28181;BME280;15464;50.988;10.318;2022-09-01T04:49:15;99491.91;;;9.42;78.02
28181;BME280;15464;50.988;10.318;2022-09-01T04:54:13;99495.69;;;9.38;79.15
28181;BME280;15464;50.988;10.318;2022-09-01T04:56:41;99504.59;;;9.37;79.07
28181;BME280;15464;50.988;10.318;2022-09-01T04:59:10;99496.13;;;9.32;79.42
28181;BME280;15464;50.988;10.318;2022-09-01T05:01:38;99494.44;;;9.31;78.90
28181;BME280;15464;50.988;10.318;2022-09-01T05:04:10;99492.63;;;9.31;79.32
28181;BME280;15464;50.988;10.318;2022-09-01T05:06:40;99498.78;;;9.32;78.98
28181;BME280;15464;50.988;10.318;2022-09-01T05:09:09;99495.19;;;9.33;78.84
28181;BME280;15464;50.988;10.318;2022-09-01T05:11:38;99492.34;;;9.36;78.47
28181;BME280;15464;50.988;10.318;2022-09-01T05:14:06;99491.06;;;9.29;79.43
28181;BME280;15464;50.988;10.318;2022-09-01T05:16:33;99499.03;;;9.29;79.24
28181;BME280;15464;50.988;10.318;2022-09-01T05:19:01;99497.72;;;9.35;79.29
28181;BME280;15464;50.988;10.318;2022-09-01T05:21:28;99494.13;;;9.36;79.88
28181;BME280;15464;50.988;10.318;2022-09-01T05:23:57;99503.44;;;9.41;80.00
28181;BME280;15464;50.988;10.318;2022-09-01T05:26:29;99504.78;;;9.47;80.12
28181;BME280;15464;50.988;10.318;2022-09-01T05:29:02;99506.38;;;9.49;80.48
28181;BME280;15464;50.988;10.318;2022-09-01T05:31:29;99503.50;;;9.52;80.21
28181;BME280;15464;50.988;10.318;2022-09-01T05:34:04;99510.06;;;9.59;81.20
28181;BME280;15464;50.988;10.318;2022-09-01T05:36:33;99504.41;;;9.64;81.05
28181;BME280;15464;50.988;10.318;2022-09-01T05:39:00;99511.31;;;9.66;80.58
28181;BME280;15464;50.988;10.318;2022-09-01T05:41:27;99509.38;;;9.68;80.83
28181;BME280;15464;50.988;10.318;2022-09-01T05:43:54;99505.56;;;9.73;80.98
28181;BME280;15464;50.988;10.318;2022-09-01T05:46:26;99515.72;;;9.79;81.21
28181;BME280;15464;50.988;10.318;2022-09-01T05:48:54;99515.25;;;9.85;81.43
28181;BME280;15464;50.988;10.318;2022-09-01T05:51:25;99509.72;;;9.88;81.42
28181;BME280;15464;50.988;10.318;2022-09-01T05:54:09;99505.25;;;9.88;82.17
28181;BME280;15464;50.988;10.318;2022-09-01T05:56:37;99512.91;;;9.93;82.19
28181;BME280;15464;50.988;10.318;2022-09-01T05:59:09;99509.06;;;9.97;82.77
28181;BME280;15464;50.988;10.318;2022-09-01T06:01:53;99509.56;;;10.02;82.90
28181;BME280;15464;50.988;10.318;2022-09-01T06:04:21;99503.81;;;10.08;82.08
28181;BME280;15464;50.988;10.318;2022-09-01T06:06:50;99512.13;;;10.15;82.77
28181;BME280;15464;50.988;10.318;2022-09-01T06:09:37;99505.47;;;10.22;81.73
28181;BME280;15464;50.988;10.318;2022-09-01T06:12:04;99508.25;;;10.31;81.79
28181;BME280;15464;50.988;10.318;2022-09-01T06:14:32;99508.41;;;10.41;81.89
28181;BME280;15464;50.988;10.318;2022-09-01T06:16:59;99506.84;;;10.49;81.70
28181;BME280;15464;50.988;10.318;2022-09-01T06:19:26;99507.41;;;10.66;81.71
28181;BME280;15464;50.988;10.318;2022-09-01T06:21:54;99508.25;;;10.77;81.41
28181;BME280;15464;50.988;10.318;2022-09-01T06:24:20;99506.47;;;11.00;81.29
28181;BME280;15464;50.988;10.318;2022-09-01T06:26:47;99504.31;;;11.27;80.32
28181;BME280;15464;50.988;10.318;2022-09-01T06:29:14;99512.38;;;11.48;79.65
28181;BME280;15464;50.988;10.318;2022-09-01T06:31:41;99508.13;;;11.68;78.60
28181;BME280;15464;50.988;10.318;2022-09-01T06:34:10;99509.78;;;11.91;77.47
28181;BME280;15464;50.988;10.318;2022-09-01T06:36:44;99509.44;;;12.17;76.40
28181;BME280;15464;50.988;10.318;2022-09-01T06:39:12;99501.66;;;12.25;75.90
28181;BME280;15464;50.988;10.318;2022-09-01T06:41:49;99501.81;;;12.44;75.58
28181;BME280;15464;50.988;10.318;2022-09-01T06:44:19;99501.69;;;12.66;73.88
28181;BME280;15464;50.988;10.318;2022-09-01T06:46:49;99508.09;;;12.84;73.85
28181;BME280;15464;50.988;10.318;2022-09-01T06:49:18;99499.31;;;12.93;73.31
28181;BME280;15464;50.988;10.318;2022-09-01T06:51:46;99510.16;;;13.02;73.06
28181;BME280;15464;50.988;10.318;2022-09-01T06:54:17;99508.16;;;13.15;72.96
28181;BME280;15464;50.988;10.318;2022-09-01T06:56:46;99512.72;;;13.33;71.76
28181;BME280;15464;50.988;10.318;2022-09-01T06:59:18;99512.78;;;13.53;71.00
28181;BME280;15464;50.988;10.318;2022-09-01T07:01:45;99510.91;;;13.74;70.73
28181;BME280;15464;50.988;10.318;2022-09-01T07:04:14;99506.56;;;14.02;70.20
28181;BME280;15464;50.988;10.318;2022-09-01T07:06:46;99514.28;;;14.24;68.71
28181;BME280;15464;50.988;10.318;2022-09-01T07:09:26;99513.34;;;14.54;66.82
28181;BME280;15464;50.988;10.318;2022-09-01T07:12:14;99514.88;;;14.66;66.31
28181;BME280;15464;50.988;10.318;2022-09-01T07:15:05;99508.09;;;14.91;67.16
28181;BME280;15464;50.988;10.318;2022-09-01T07:17:54;99508.56;;;15.23;65.18
28181;BME280;15464;50.988;10.318;2022-09-01T07:20:25;99515.22;;;15.37;63.66
28181;BME280;15464;50.988;10.318;2022-09-01T07:22:54;99504.19;;;15.50;63.70
28181;BME280;15464;50.988;10.318;2022-09-01T07:25:31;99499.84;;;15.76;63.15
28181;BME280;15464;50.988;10.318;2022-09-01T07:28:21;99502.91;;;15.81;61.62
28181;BME280;15464;50.988;10.318;2022-09-01T07:31:03;99507.53;;;16.06;61.74
28181;BME280;15464;50.988;10.318;2022-09-01T07:33:52;99502.88;;;16.08;61.30
28181;BME280;15464;50.988;10.318;2022-09-01T07:36:41;99505.41;;;16.28;60.64
28181;BME280;15464;50.988;10.318;2022-09-01T07:39:30;99505.25;;;16.47;59.78
28181;BME280;15464;50.988;10.318;2022-09-01T07:42:18;99506.59;;;16.51;59.30
28181;BME280;15464;50.988;10.318;2022-09-01T07:45:07;99503.38;;;16.83;59.09
28181;BME280;15464;50.988;10.318;2022-09-01T07:47:54;99495.47;;;16.81;58.94
28181;BME280;15464;50.988;10.318;2022-09-01T07:50:21;99502.88;;;17.13;58.41
28181;BME280;15464;50.988;10.318;2022-09-01T07:53:09;99506.53;;;17.30;57.71
28181;BME280;15464;50.988;10.318;2022-09-01T07:55:39;99501.31;;;17.28;57.07
28181;BME280;15464;50.988;10.318;2022-09-01T07:58:10;99499.72;;;17.52;56.66
28181;BME280;15464;50.988;10.318;2022-09-01T08:00:40;99493.88;;;17.56;56.54
28181;BME280;15464;50.988;10.318;2022-09-01T08:03:12;99499.66;;;17.69;55.41
28181;BME280;15464;50.988;10.318;2022-09-01T08:05:39;99503.09;;;17.96;55.94
28181;BME280;15464;50.988;10.318;2022-09-01T08:08:06;99508.81;;;18.01;55.01
28181;BME280;15464;50.988;10.318;2022-09-01T08:10:44;99501.94;;;18.06;54.77
28181;BME280;15464;50.988;10.318;2022-09-01T08:13:15;99494.00;;;17.89;54.64
28181;BME280;15464;50.988;10.318;2022-09-01T08:15:44;99500.72;;;17.93;55.54
28181;BME280;15464;50.988;10.318;2022-09-01T08:18:30;99502.78;;;18.07;54.76
28181;BME280;15464;50.988;10.318;2022-09-01T08:21:14;99500.06;;;17.91;55.32
28181;BME280;15464;50.988;10.318;2022-09-01T08:23:42;99505.09;;;17.86;55.09
28181;BME280;15464;50.988;10.318;2022-09-01T08:26:12;99499.69;;;17.78;55.68
28181;BME280;15464;50.988;10.318;2022-09-01T08:28:39;99500.19;;;17.73;55.35
28181;BME280;15464;50.988;10.318;2022-09-01T08:31:13;99507.22;;;17.74;55.72
28181;BME280;15464;50.988;10.318;2022-09-01T08:33:42;99506.72;;;17.70;55.32
28181;BME280;15464;50.988;10.318;2022-09-01T08:36:11;99509.34;;;17.62;55.67
28181;BME280;15464;50.988;10.318;2022-09-01T08:38:39;99514.13;;;17.51;56.56
28181;BME280;15464;50.988;10.318;2022-09-01T08:44:10;99516.41;;;17.63;55.50
28181;BME280;15464;50.988;10.318;2022-09-01T08:46:41;99501.50;;;17.69;56.21
28181;BME280;15464;50.988;10.318;2022-09-01T08:49:14;99505.72;;;17.71;55.17
28181;BME280;15464;50.988;10.318;2022-09-01T08:54:56;99510.72;;;17.66;55.32
28181;BME280;15464;50.988;10.318;2022-09-01T08:57:31;99502.69;;;17.74;55.60
28181;BME280;15464;50.988;10.318;2022-09-01T08:59:58;99500.69;;;17.77;55.53
28181;BME280;15464;50.988;10.318;2022-09-01T09:02:47;99504.44;;;17.92;55.75
28181;BME280;15464;50.988;10.318;2022-09-01T09:05:27;99506.47;;;18.14;53.91
28181;BME280;15464;50.988;10.318;2022-09-01T09:08:28;99505.47;;;18.07;54.26
28181;BME280;15464;50.988;10.318;2022-09-01T09:11:22;99506.16;;;18.09;54.36
28181;BME280;15464;50.988;10.318;2022-09-01T09:16:41;99498.13;;;18.33;54.18
28181;BME280;15464;50.988;10.318;2022-09-01T09:22:05;99502.50;;;18.42;53.45
28181;BME280;15464;50.988;10.318;2022-09-01T09:24:58;99498.47;;;18.46;52.96
28181;BME280;15464;50.988;10.318;2022-09-01T09:27:40;99490.41;;;18.54;52.79
28181;BME280;15464;50.988;10.318;2022-09-01T09:30:10;99487.56;;;18.72;53.05
28181;BME280;15464;50.988;10.318;2022-09-01T09:35:42;99476.31;;;18.77;52.47
28181;BME280;15464;50.988;10.318;2022-09-01T09:41:02;99475.56;;;18.99;50.50
28181;BME280;15464;50.988;10.318;2022-09-01T09:44:05;99477.56;;;19.13;51.18
28181;BME280;15464;50.988;10.318;2022-09-01T09:46:42;99471.47;;;19.27;50.40
28181;BME280;15464;50.988;10.318;2022-09-01T09:51:38;99464.88;;;19.46;49.83
28181;BME280;15464;50.988;10.318;2022-09-01T09:54:17;99464.34;;;19.43;49.75
28181;BME280;15464;50.988;10.318;2022-09-01T09:56:44;99464.66;;;19.56;49.56
28181;BME280;15464;50.988;10.318;2022-09-01T09:59:18;99468.38;;;19.55;50.17
28181;BME280;15464;50.988;10.318;2022-09-01T10:04:54;99466.06;;;19.74;48.23
28181;BME280;15464;50.988;10.318;2022-09-01T10:07:32;99467.59;;;19.77;46.88
28181;BME280;15464;50.988;10.318;2022-09-01T10:10:25;99464.19;;;19.83;47.49
28181;BME280;15464;50.988;10.318;2022-09-01T10:12:53;99459.00;;;20.04;48.06
28181;BME280;15464;50.988;10.318;2022-09-01T10:15:24;99456.97;;;20.06;47.50
28181;BME280;15464;50.988;10.318;2022-09-01T10:17:52;99447.03;;;20.30;47.33
28181;BME280;15464;50.988;10.318;2022-09-01T10:20:47;99464.28;;;20.43;45.57
28181;BME280;15464;50.988;10.318;2022-09-01T10:23:14;99460.19;;;20.25;44.73
28181;BME280;15464;50.988;10.318;2022-09-01T10:25:41;99454.56;;;20.11;45.65
28181;BME280;15464;50.988;10.318;2022-09-01T10:28:14;99461.34;;;20.07;45.42
28181;BME280;15464;50.988;10.318;2022-09-01T10:30:46;99456.13;;;20.06;46.20
28181;BME280;15464;50.988;10.318;2022-09-01T10:33:15;99454.94;;;20.08;46.08
28181;BME280;15464;50.988;10.318;2022-09-01T10:35:52;99446.44;;;20.20;43.86
28181;BME280;15464;50.988;10.318;2022-09-01T10:38:27;99448.44;;;20.18;44.39
28181;BME280;15464;50.988;10.318;2022-09-01T10:40:56;99444.28;;;20.38;44.15
28181;BME280;15464;50.988;10.318;2022-09-01T10:43:42;99454.00;;;20.47;43.54
28181;BME280;15464;50.988;10.318;2022-09-01T10:49:21;99443.38;;;20.23;44.10
28181;BME280;15464;50.988;10.318;2022-09-01T10:51:54;99441.97;;;20.35;44.55
28181;BME280;15464;50.988;10.318;2022-09-01T10:57:37;99437.06;;;20.30;44.50
28181;BME280;15464;50.988;10.318;2022-09-01T11:08:56;99446.19;;;20.06;45.29
28181;BME280;15464;50.988;10.318;2022-09-01T11:11:40;99445.75;;;20.18;44.80
28181;BME280;15464;50.988;10.318;2022-09-01T11:14:23;99451.09;;;20.03;45.25
28181;BME280;15464;50.988;10.318;2022-09-01T11:17:37;99443.38;;;20.45;44.42
28181;BME280;15464;50.988;10.318;2022-09-01T11:20:06;99443.78;;;20.57;44.15
28181;BME280;15464;50.988;10.318;2022-09-01T11:22:41;99437.59;;;20.71;43.45
28181;BME280;15464;50.988;10.318;2022-09-01T11:25:35;99437.31;;;20.66;44.21
28181;BME280;15464;50.988;10.318;2022-09-01T11:28:06;99435.75;;;20.49;43.49
28181;BME280;15464;50.988;10.318;2022-09-01T11:30:38;99439.47;;;20.85;43.44
28181;BME280;15464;50.988;10.318;2022-09-01T11:35:36;99433.44;;;21.13;38.66
28181;BME280;15464;50.988;10.318;2022-09-01T11:38:05;99429.34;;;21.46;39.47
28181;BME280;15464;50.988;10.318;2022-09-01T11:40:35;99424.97;;;21.81;39.65
28181;BME280;15464;50.988;10.318;2022-09-01T11:43:28;99427.81;;;21.58;39.32
28181;BME280;15464;50.988;10.318;2022-09-01T11:46:11;99427.38;;;21.91;39.11
28181;BME280;15464;50.988;10.318;2022-09-01T11:48:45;99430.56;;;22.16;38.26
28181;BME280;15464;50.988;10.318;2022-09-01T11:51:17;99429.88;;;21.92;38.32
28181;BME280;15464;50.988;10.318;2022-09-01T11:53:43;99419.22;;;22.05;38.00
28181;BME280;15464;50.988;10.318;2022-09-01T11:56:19;99411.91;;;22.21;37.12
28181;BME280;15464;50.988;10.318;2022-09-01T11:58:50;99417.13;;;22.22;37.54
28181;BME280;15464;50.988;10.318;2022-09-01T12:01:23;99420.66;;;22.01;37.69
28181;BME280;15464;50.988;10.318;2022-09-01T12:03:56;99416.34;;;22.07;37.28
28181;BME280;15464;50.988;10.318;2022-09-01T12:06:26;99415.44;;;22.42;36.12
28181;BME280;15464;50.988;10.318;2022-09-01T12:09:00;99406.91;;;22.45;35.79
28181;BME280;15464;50.988;10.318;2022-09-01T12:11:30;99413.16;;;22.25;35.95
28181;BME280;15464;50.988;10.318;2022-09-01T12:14:00;99395.13;;;23.15;36.47
28181;BME280;15464;50.988;10.318;2022-09-01T12:16:31;99392.91;;;23.86;35.42
28181;BME280;15464;50.988;10.318;2022-09-01T12:19:00;99402.94;;;24.12;33.32
28181;BME280;15464;50.988;10.318;2022-09-01T12:21:33;99387.88;;;23.22;34.15
28181;BME280;15464;50.988;10.318;2022-09-01T12:24:31;99391.88;;;22.92;34.54
28181;BME280;15464;50.988;10.318;2022-09-01T12:26:59;99393.31;;;22.88;34.67
28181;BME280;15464;50.988;10.318;2022-09-01T12:29:27;99391.84;;;22.85;34.67
28181;BME280;15464;50.988;10.318;2022-09-01T12:31:58;99373.97;;;23.39;33.79
28181;BME280;15464;50.988;10.318;2022-09-01T12:34:43;99385.94;;;22.75;33.73
28181;BME280;15464;50.988;10.318;2022-09-01T12:39:44;99374.16;;;22.89;34.52
28181;BME280;15464;50.988;10.318;2022-09-01T12:42:23;99371.78;;;23.62;33.71
28181;BME280;15464;50.988;10.318;2022-09-01T12:44:56;99376.28;;;24.09;32.93
28181;BME280;15464;50.988;10.318;2022-09-01T12:50:31;99387.00;;;22.81;34.36
28181;BME280;15464;50.988;10.318;2022-09-01T12:52:55;99386.88;;;22.61;35.48
28181;BME280;15464;50.988;10.318;2022-09-01T12:55:27;99380.78;;;22.31;36.39
28181;BME280;15464;50.988;10.318;2022-09-01T12:58:20;99380.59;;;22.33;37.53
28181;BME280;15464;50.988;10.318;2022-09-01T13:03:21;99371.38;;;23.11;36.61
28181;BME280;15464;50.988;10.318;2022-09-01T13:05:51;99378.88;;;23.15;36.24
28181;BME280;15464;50.988;10.318;2022-09-01T13:08:19;99380.44;;;22.69;36.59
28181;BME280;15464;50.988;10.318;2022-09-01T13:10:52;99372.72;;;23.35;35.93
28181;BME280;15464;50.988;10.318;2022-09-01T13:13:21;99375.97;;;23.64;33.94
28181;BME280;15464;50.988;10.318;2022-09-01T13:15:55;99369.56;;;23.85;34.25
28181;BME280;15464;50.988;10.318;2022-09-01T13:18:23;99373.53;;;23.96;33.51
28181;BME280;15464;50.988;10.318;2022-09-01T13:20:51;99364.78;;;24.13;34.01
28181;BME280;15464;50.988;10.318;2022-09-01T13:23:19;99360.81;;;24.75;33.14
28181;BME280;15464;50.988;10.318;2022-09-01T13:25:46;99358.75;;;24.71;32.13
28181;BME280;15464;50.988;10.318;2022-09-01T13:28:14;99354.19;;;24.58;32.98
28181;BME280;15464;50.988;10.318;2022-09-01T13:30:49;99343.28;;;24.91;32.12
28181;BME280;15464;50.988;10.318;2022-09-01T13:33:39;99344.91;;;24.99;31.66
28181;BME280;15464;50.988;10.318;2022-09-01T13:36:25;99339.00;;;25.21;32.21
28181;BME280;15464;50.988;10.318;2022-09-01T13:39:12;99340.19;;;25.32;31.26
28181;BME280;15464;50.988;10.318;2022-09-01T13:41:38;99340.41;;;25.75;32.11
28181;BME280;15464;50.988;10.318;2022-09-01T13:44:05;99344.47;;;25.15;30.76
28181;BME280;15464;50.988;10.318;2022-09-01T13:46:32;99348.59;;;25.17;30.76
28181;BME280;15464;50.988;10.318;2022-09-01T13:48:58;99340.63;;;25.74;30.64
28181;BME280;15464;50.988;10.318;2022-09-01T13:51:30;99338.44;;;25.00;30.89
28181;BME280;15464;50.988;10.318;2022-09-01T13:53:57;99338.09;;;25.34;30.50
28181;BME280;15464;50.988;10.318;2022-09-01T13:56:23;99337.41;;;25.01;31.10
28181;BME280;15464;50.988;10.318;2022-09-01T13:58:50;99337.34;;;25.14;31.36
28181;BME280;15464;50.988;10.318;2022-09-01T14:01:17;99328.22;;;24.88;30.87
28181;BME280;15464;50.988;10.318;2022-09-01T14:03:44;99339.59;;;24.52;31.48
28181;BME280;15464;50.988;10.318;2022-09-01T14:06:17;99338.13;;;24.50;31.34
28181;BME280;15464;50.988;10.318;2022-09-01T14:08:43;99344.13;;;24.92;31.09
28181;BME280;15464;50.988;10.318;2022-09-01T14:11:16;99347.09;;;24.44;31.42
28181;BME280;15464;50.988;10.318;2022-09-01T14:13:43;99338.75;;;24.59;31.43